TimeMST,TemperatureF,Dew PointF,Humidity,Sea Level PressureIn,VisibilityMPH,Wind Direction,Wind SpeedMPH,Gust SpeedMPH,PrecipitationIn,Events,Conditions,WindDirDegrees,DateUTC
12:53 AM,21.0,1.9,44,30.54,9.0,Calm,Calm,-,N/A,,Clear,0,2013-01-16 07:53:00
1:53 AM,21.0,3.0,46,30.56,8.0,Calm,Calm,-,N/A,,Clear,0,2013-01-16 08:53:00
2:53 AM,19.9,3.0,48,30.56,9.0,Calm,Calm,-,N/A,,Clear,0,2013-01-16 09:53:00
3:53 AM,19.0,1.9,47,30.55,10.0,SE,4.6,-,N/A,,Clear,140,2013-01-16 10:53:00
4:53 AM,19.0,3.0,50,30.55,10.0,Calm,Calm,-,N/A,,Clear,0,2013-01-16 11:53:00
5:53 AM,19.9,3.9,50,30.56,9.0,Calm,Calm,-,N/A,,Clear,0,2013-01-16 12:53:00
6:53 AM,19.0,5.0,54,30.59,8.0,Calm,Calm,-,N/A,,Clear,0,2013-01-16 13:53:00
7:53 AM,18.0,3.0,52,30.60,10.0,SSE,5.8,-,N/A,,Clear,160,2013-01-16 14:53:00
8:53 AM,24.1,3.9,42,30.60,10.0,NNW,3.5,-,N/A,,Clear,330,2013-01-16 15:53:00
9:53 AM,26.1,7.0,44,30.61,10.0,Calm,Calm,-,N/A,,Clear,0,2013-01-16 16:53:00
10:53 AM,28.9,7.0,40,30.59,10.0,Calm,Calm,-,N/A,,Clear,0,2013-01-16 17:53:00
11:53 AM,32.0,6.8,35,30.48,10.0,Variable,4.6,-,N/A,,Clear,0,2013-01-16 18:53:00
12:53 PM,33.8,8.6,35,30.44,10.0,ENE,4.6,-,N/A,,Clear,70,2013-01-16 19:53:00
1:53 PM,33.1,6.1,32,30.49,10.0,Calm,Calm,-,N/A,,Clear,0,2013-01-16 20:53:00
2:53 PM,35.1,7.0,31,30.48,10.0,North,4.6,-,N/A,,Clear,360,2013-01-16 21:53:00
3:53 PM,36.0,7.0,30,30.49,10.0,NNW,3.5,-,N/A,,Clear,340,2013-01-16 22:53:00
4:53 PM,35.1,8.1,33,30.50,10.0,Calm,Calm,-,N/A,,Clear,0,2013-01-16 23:53:00
5:53 PM,32.0,8.1,37,30.51,10.0,Calm,Calm,-,N/A,,Clear,0,2013-01-17 00:53:00
6:53 PM,30.0,8.1,40,30.52,7.0,Calm,Calm,-,N/A,,Clear,0,2013-01-17 01:53:00
7:53 PM,28.9,8.1,41,30.54,10.0,SSW,3.5,-,N/A,,Clear,210,2013-01-17 02:53:00
8:53 PM,28.0,8.1,43,30.53,6.0,Calm,Calm,-,N/A,,Haze,0,2013-01-17 03:53:00
9:53 PM,27.0,8.1,45,30.53,7.0,Calm,Calm,-,N/A,,Clear,0,2013-01-17 04:53:00
10:53 PM,25.0,9.0,51,30.53,10.0,Calm,Calm,-,N/A,,Clear,0,2013-01-17 05:53:00
11:53 PM,24.1,9.0,53,30.54,4.0,Calm,Calm,-,N/A,,Haze,0,2013-01-17 06:53:00